Terminal Aerodrome Forecast
Issued by NWS

Home | Current Version | Previous Version | Text Only | Print | Product List | Glossary On
Versions: 1 2 3 4 5 6 7 8 9 10 11 12 13 14 15 16 17 18 19
196
FTUS43 KDVN 281130
TAFBRL
TAF
KBRL 281130Z 2812/2912 36012KT P6SM SCT025 SCT100
     FM281300 35014G20KT P6SM SCT015 BKN025
     FM281900 35014G20KT P6SM BKN035
     FM290000 36009KT P6SM SCT040=

USA.gov is the U.S. government's official web portal to all federal, state and local government web resources and services.